Flight Track Log - Related Links

Times and Time Zones

All times are in EDT time to prevent confusion due to time zone crossing. See the N665LF flight status page for this flight to view local times or setup timezone preferences in your user account.

Time Position Orientation Groundspeed Altitude Reporting Facility
EDT Latitude Longitude Course Direction KTS MPH feet Rate Location/Type
Sun 03:05:51 PM 42.4667 -71.3167 216° Southwest 140 161 1,000  Level KA90
Sun 03:06:40 PM 42.4500 -71.3333 216° Southwest 127 146 1,800 936 Climbing KA90
Sun 03:07:40 PM 42.4167 -71.3167 160° South 156 180 2,700 1,000 Climbing KA90
Sun 03:08:40 PM 42.3833 -71.2667 132° Southeast 161 185 3,800 1,050 Climbing KA90
Sun 03:09:40 PM 42.3500 -71.2333 144° Southeast 164 189 4,800 900 Climbing KA90
Sun 03:10:40 PM 42.3167 -71.1833 132° Southeast 164 189 5,600 800 Climbing KA90
Sun 03:11:40 PM 42.2833 -71.1333 132° Southeast 168 193 6,400 700 Climbing KA90
Sun 03:12:40 PM 42.2667 -71.0833 114° Southeast 173 199 7,000 350 Climbing KA90
Sun 03:13:40 PM 42.2167 -71.0333 143° Southeast 201 231 7,100 50 Climbing KA90
Sun 03:14:40 PM 42.1833 -70.9833 132° Southeast 203 234 7,100 -50 Level KA90
Sun 03:15:41 PM 42.1500 -70.9333 132° Southeast 203 234 7,000 -98 Descending KA90
Sun 03:17:00 PM 42.1004 -70.8843 144° Southeast  Level Estimated
Sun 03:24:00 PM 41.8367 -70.6248 144° Southeast  Level Estimated
Sun 03:25:00 PM 41.7989 -70.5879 144° Southeast  Level Estimated
Sun 03:26:00 PM 41.7612 -70.5511 144° Southeast  Level Estimated
Sun 03:27:00 PM 41.7234 -70.5143 144° Southeast  Level Estimated
Sun 03:28:00 PM 41.6857 -70.4775 144° Southeast  Level Estimated
Sun 03:29:00 PM 41.6479 -70.4408 144° Southeast  Level Estimated
Sun 03:30:00 PM 41.6101 -70.4041 144° Southeast  Level Estimated
Sun 03:31:00 PM 41.5723 -70.3675 144° Southeast  Level Estimated
Sun 03:32:00 PM 41.5345 -70.3309 144° Southeast  Level Estimated
Sun 03:33:00 PM 41.4967 -70.2943 144° Southeast  Level Estimated
Sun 03:34:00 PM 41.4588 -70.2578 144° Southeast  Level Estimated
Sun 03:35:00 PM 41.4210 -70.2214 144° Southeast  Level Estimated
Sun 03:36:00 PM 41.3831 -70.1850 144° Southeast  Level Estimated
Sun 03:37:00 PM 41.3452 -70.1486 144° Southeast  Level Estimated
Sun 03:38:00 PM 41.3074 -70.1122 144° Southeast  Level Estimated
Sun 03:39:00 PM 41.2695 -70.0760 144° Southeast  Level Estimated
Sun 03:40:00 PM 41.2531 -70.0603 144° Southeast  Level Estimated
Sun 03:41:00 PM 41.2531 -70.0603 72° East  Level Estimated
Sun 03:42:00 PM 41.2531 -70.0603 72° East  Level Estimated
Sun 03:43:00 PM 41.2531 -70.0603 72° East  Level Estimated
Sun 03:44:00 PM 41.2531 -70.0603 72° East  Level Estimated
Sun 03:45:00 PM 41.2531 -70.0603 72° East  Level Estimated
Sun 03:46:00 PM 41.2531 -70.0603 72° East  Level Estimated
Sun 03:47:00 PM 41.2531 -70.0603 72° East  Level Estimated

Login

Don't have an account? Register now (free) for customized features, flight alerts, and more!